sensor_id;sensor_type;location;lat;lon;timestamp;P1;durP1;ratioP1;P2;durP2;ratioP2
13475;SDS011;6810;63.824;20.288;2023-12-20T00:00:16;0.00;;;0.00;;
13475;SDS011;6810;63.824;20.288;2023-12-20T00:03:03;0.20;;;0.00;;
13475;SDS011;6810;63.824;20.288;2023-12-20T00:05:50;1.13;;;0.10;;
13475;SDS011;6810;63.824;20.288;2023-12-20T00:08:37;1.10;;;0.10;;
13475;SDS011;6810;63.824;20.288;2023-12-20T00:11:24;0.10;;;0.10;;
13475;SDS011;6810;63.824;20.288;2023-12-20T00:14:11;0.13;;;0.00;;
13475;SDS011;6810;63.824;20.288;2023-12-20T00:16:58;0.10;;;0.00;;
13475;SDS011;6810;63.824;20.288;2023-12-20T00:19:46;0.00;;;0.00;;
13475;SDS011;6810;63.824;20.288;2023-12-20T00:22:33;0.20;;;0.10;;
13475;SDS011;6810;63.824;20.288;2023-12-20T00:25:20;0.30;;;0.10;;
13475;SDS011;6810;63.824;20.288;2023-12-20T00:28:07;0.20;;;0.00;;
13475;SDS011;6810;63.824;20.288;2023-12-20T00:30:54;1.13;;;0.10;;
13475;SDS011;6810;63.824;20.288;2023-12-20T00:33:41;0.30;;;0.10;;
13475;SDS011;6810;63.824;20.288;2023-12-20T00:36:29;0.00;;;0.00;;
13475;SDS011;6810;63.824;20.288;2023-12-20T00:39:16;1.00;;;0.20;;
13475;SDS011;6810;63.824;20.288;2023-12-20T00:42:03;0.53;;;0.10;;
13475;SDS011;6810;63.824;20.288;2023-12-20T00:44:50;0.00;;;0.00;;
13475;SDS011;6810;63.824;20.288;2023-12-20T00:47:37;0.00;;;0.00;;
13475;SDS011;6810;63.824;20.288;2023-12-20T00:50:24;0.83;;;0.07;;
13475;SDS011;6810;63.824;20.288;2023-12-20T00:53:12;0.40;;;0.20;;
13475;SDS011;6810;63.824;20.288;2023-12-20T00:55:59;0.00;;;0.00;;
13475;SDS011;6810;63.824;20.288;2023-12-20T00:58:46;0.00;;;0.00;;
13475;SDS011;6810;63.824;20.288;2023-12-20T01:01:34;0.17;;;0.10;;
13475;SDS011;6810;63.824;20.288;2023-12-20T01:04:21;0.30;;;0.13;;
13475;SDS011;6810;63.824;20.288;2023-12-20T01:07:08;1.03;;;0.07;;
13475;SDS011;6810;63.824;20.288;2023-12-20T01:09:55;0.53;;;0.10;;
13475;SDS011;6810;63.824;20.288;2023-12-20T01:12:43;0.83;;;0.10;;
13475;SDS011;6810;63.824;20.288;2023-12-20T01:15:30;0.10;;;0.10;;
13475;SDS011;6810;63.824;20.288;2023-12-20T01:18:17;0.57;;;0.20;;
13475;SDS011;6810;63.824;20.288;2023-12-20T01:21:04;0.00;;;0.00;;
13475;SDS011;6810;63.824;20.288;2023-12-20T01:23:52;0.53;;;0.10;;
13475;SDS011;6810;63.824;20.288;2023-12-20T01:26:39;0.73;;;0.73;;
13475;SDS011;6810;63.824;20.288;2023-12-20T01:29:26;0.13;;;0.00;;
13475;SDS011;6810;63.824;20.288;2023-12-20T01:32:13;0.10;;;0.00;;
13475;SDS011;6810;63.824;20.288;2023-12-20T01:35:00;0.30;;;0.10;;
13475;SDS011;6810;63.824;20.288;2023-12-20T01:37:47;0.00;;;0.00;;
13475;SDS011;6810;63.824;20.288;2023-12-20T01:40:34;0.07;;;0.00;;
13475;SDS011;6810;63.824;20.288;2023-12-20T01:43:21;0.10;;;0.00;;
13475;SDS011;6810;63.824;20.288;2023-12-20T01:46:17;0.50;;;0.10;;
13475;SDS011;6810;63.824;20.288;2023-12-20T01:49:06;0.53;;;0.10;;
13475;SDS011;6810;63.824;20.288;2023-12-20T01:51:54;0.20;;;0.10;;
13475;SDS011;6810;63.824;20.288;2023-12-20T01:54:42;0.10;;;0.10;;
13475;SDS011;6810;63.824;20.288;2023-12-20T01:57:30;1.33;;;0.13;;
13475;SDS011;6810;63.824;20.288;2023-12-20T02:00:17;0.30;;;0.17;;
13475;SDS011;6810;63.824;20.288;2023-12-20T02:03:05;1.77;;;0.10;;
13475;SDS011;6810;63.824;20.288;2023-12-20T02:05:52;0.00;;;0.00;;
13475;SDS011;6810;63.824;20.288;2023-12-20T02:08:40;0.27;;;0.10;;
13475;SDS011;6810;63.824;20.288;2023-12-20T02:11:27;0.20;;;0.10;;
13475;SDS011;6810;63.824;20.288;2023-12-20T02:14:14;0.97;;;0.20;;
13475;SDS011;6810;63.824;20.288;2023-12-20T02:17:01;0.27;;;0.10;;
13475;SDS011;6810;63.824;20.288;2023-12-20T02:19:49;1.93;;;0.10;;
13475;SDS011;6810;63.824;20.288;2023-12-20T02:22:36;0.97;;;0.10;;
13475;SDS011;6810;63.824;20.288;2023-12-20T02:25:23;0.20;;;0.10;;
13475;SDS011;6810;63.824;20.288;2023-12-20T02:28:10;0.53;;;0.13;;
13475;SDS011;6810;63.824;20.288;2023-12-20T02:30:57;0.53;;;0.10;;
13475;SDS011;6810;63.824;20.288;2023-12-20T02:33:44;0.20;;;0.10;;
13475;SDS011;6810;63.824;20.288;2023-12-20T02:36:32;0.93;;;0.10;;
13475;SDS011;6810;63.824;20.288;2023-12-20T02:39:19;0.10;;;0.10;;
13475;SDS011;6810;63.824;20.288;2023-12-20T02:42:06;0.73;;;0.20;;
13475;SDS011;6810;63.824;20.288;2023-12-20T02:44:53;0.40;;;0.20;;
13475;SDS011;6810;63.824;20.288;2023-12-20T02:47:40;1.77;;;0.10;;
13475;SDS011;6810;63.824;20.288;2023-12-20T02:50:27;1.20;;;0.30;;
13475;SDS011;6810;63.824;20.288;2023-12-20T02:53:14;0.70;;;0.20;;
13475;SDS011;6810;63.824;20.288;2023-12-20T02:56:01;1.33;;;0.20;;
13475;SDS011;6810;63.824;20.288;2023-12-20T02:58:49;0.37;;;0.03;;
13475;SDS011;6810;63.824;20.288;2023-12-20T03:01:41;0.37;;;0.10;;
13475;SDS011;6810;63.824;20.288;2023-12-20T03:04:09;0.27;;;0.10;;
13475;SDS011;6810;63.824;20.288;2023-12-20T03:06:37;1.10;;;0.40;;
13475;SDS011;6810;63.824;20.288;2023-12-20T03:09:04;1.17;;;0.50;;
13475;SDS011;6810;63.824;20.288;2023-12-20T03:11:31;0.47;;;0.20;;
13475;SDS011;6810;63.824;20.288;2023-12-20T03:13:58;0.23;;;0.10;;
13475;SDS011;6810;63.824;20.288;2023-12-20T03:16:25;0.40;;;0.20;;
13475;SDS011;6810;63.824;20.288;2023-12-20T03:18:52;0.70;;;0.17;;
13475;SDS011;6810;63.824;20.288;2023-12-20T03:21:20;0.03;;;0.03;;
13475;SDS011;6810;63.824;20.288;2023-12-20T03:23:47;0.83;;;0.40;;
13475;SDS011;6810;63.824;20.288;2023-12-20T03:26:15;0.20;;;0.17;;
13475;SDS011;6810;63.824;20.288;2023-12-20T03:28:42;0.20;;;0.10;;
13475;SDS011;6810;63.824;20.288;2023-12-20T03:31:09;0.33;;;0.23;;
13475;SDS011;6810;63.824;20.288;2023-12-20T03:33:36;0.43;;;0.10;;
13475;SDS011;6810;63.824;20.288;2023-12-20T03:36:04;0.30;;;0.20;;
13475;SDS011;6810;63.824;20.288;2023-12-20T03:38:31;0.27;;;0.20;;
13475;SDS011;6810;63.824;20.288;2023-12-20T03:40:58;0.00;;;0.00;;
13475;SDS011;6810;63.824;20.288;2023-12-20T03:43:25;1.07;;;0.20;;
13475;SDS011;6810;63.824;20.288;2023-12-20T03:45:52;0.20;;;0.17;;
13475;SDS011;6810;63.824;20.288;2023-12-20T03:48:19;0.43;;;0.27;;
13475;SDS011;6810;63.824;20.288;2023-12-20T03:50:47;0.20;;;0.13;;
13475;SDS011;6810;63.824;20.288;2023-12-20T03:53:14;1.67;;;0.20;;
13475;SDS011;6810;63.824;20.288;2023-12-20T03:55:41;0.20;;;0.10;;
13475;SDS011;6810;63.824;20.288;2023-12-20T03:58:08;1.33;;;0.30;;
13475;SDS011;6810;63.824;20.288;2023-12-20T04:00:35;2.00;;;0.10;;
13475;SDS011;6810;63.824;20.288;2023-12-20T04:03:02;0.37;;;0.10;;
13475;SDS011;6810;63.824;20.288;2023-12-20T04:05:29;0.17;;;0.13;;
13475;SDS011;6810;63.824;20.288;2023-12-20T04:07:57;0.60;;;0.20;;
13475;SDS011;6810;63.824;20.288;2023-12-20T04:10:24;2.87;;;0.20;;
13475;SDS011;6810;63.824;20.288;2023-12-20T04:12:51;0.50;;;0.20;;
13475;SDS011;6810;63.824;20.288;2023-12-20T04:15:18;1.67;;;0.27;;
13475;SDS011;6810;63.824;20.288;2023-12-20T04:17:46;0.37;;;0.13;;
13475;SDS011;6810;63.824;20.288;2023-12-20T04:20:13;0.83;;;0.20;;
13475;SDS011;6810;63.824;20.288;2023-12-20T04:22:40;1.07;;;0.10;;
13475;SDS011;6810;63.824;20.288;2023-12-20T04:25:09;0.37;;;0.10;;
13475;SDS011;6810;63.824;20.288;2023-12-20T04:27:36;0.97;;;0.30;;
13475;SDS011;6810;63.824;20.288;2023-12-20T04:30:03;3.23;;;0.30;;
13475;SDS011;6810;63.824;20.288;2023-12-20T04:32:31;0.20;;;0.10;;
13475;SDS011;6810;63.824;20.288;2023-12-20T04:34:58;0.53;;;0.10;;
13475;SDS011;6810;63.824;20.288;2023-12-20T04:37:25;0.40;;;0.13;;
13475;SDS011;6810;63.824;20.288;2023-12-20T04:39:52;0.10;;;0.07;;
13475;SDS011;6810;63.824;20.288;2023-12-20T04:42:20;0.77;;;0.20;;
13475;SDS011;6810;63.824;20.288;2023-12-20T04:44:47;0.50;;;0.20;;
13475;SDS011;6810;63.824;20.288;2023-12-20T04:47:16;0.60;;;0.40;;
13475;SDS011;6810;63.824;20.288;2023-12-20T04:49:43;2.00;;;0.10;;
13475;SDS011;6810;63.824;20.288;2023-12-20T04:52:10;2.27;;;0.63;;
13475;SDS011;6810;63.824;20.288;2023-12-20T04:54:37;0.00;;;0.00;;
13475;SDS011;6810;63.824;20.288;2023-12-20T04:57:08;2.37;;;0.27;;
13475;SDS011;6810;63.824;20.288;2023-12-20T04:59:35;0.70;;;0.27;;
13475;SDS011;6810;63.824;20.288;2023-12-20T05:02:02;0.30;;;0.20;;
13475;SDS011;6810;63.824;20.288;2023-12-20T05:04:29;0.57;;;0.20;;
13475;SDS011;6810;63.824;20.288;2023-12-20T05:06:56;1.20;;;0.30;;
13475;SDS011;6810;63.824;20.288;2023-12-20T05:09:23;1.67;;;0.20;;
13475;SDS011;6810;63.824;20.288;2023-12-20T05:11:50;2.57;;;0.40;;
13475;SDS011;6810;63.824;20.288;2023-12-20T05:14:17;0.73;;;0.20;;
13475;SDS011;6810;63.824;20.288;2023-12-20T05:16:44;2.00;;;0.20;;
13475;SDS011;6810;63.824;20.288;2023-12-20T05:19:11;0.77;;;0.30;;
13475;SDS011;6810;63.824;20.288;2023-12-20T05:21:38;0.10;;;0.10;;
13475;SDS011;6810;63.824;20.288;2023-12-20T05:24:06;0.47;;;0.13;;
13475;SDS011;6810;63.824;20.288;2023-12-20T05:26:33;0.73;;;0.30;;
13475;SDS011;6810;63.824;20.288;2023-12-20T05:29:00;2.53;;;0.27;;
13475;SDS011;6810;63.824;20.288;2023-12-20T05:31:27;0.63;;;0.20;;
13475;SDS011;6810;63.824;20.288;2023-12-20T05:33:55;1.43;;;0.30;;
13475;SDS011;6810;63.824;20.288;2023-12-20T05:36:22;0.97;;;0.20;;
13475;SDS011;6810;63.824;20.288;2023-12-20T05:38:49;1.13;;;0.20;;
13475;SDS011;6810;63.824;20.288;2023-12-20T05:41:17;0.10;;;0.10;;
13475;SDS011;6810;63.824;20.288;2023-12-20T05:43:44;1.27;;;0.20;;
13475;SDS011;6810;63.824;20.288;2023-12-20T05:46:11;0.53;;;0.23;;
13475;SDS011;6810;63.824;20.288;2023-12-20T05:48:39;0.70;;;0.20;;
13475;SDS011;6810;63.824;20.288;2023-12-20T05:51:06;1.53;;;0.20;;
13475;SDS011;6810;63.824;20.288;2023-12-20T05:53:33;1.20;;;0.20;;
13475;SDS011;6810;63.824;20.288;2023-12-20T05:56:00;0.77;;;0.20;;
13475;SDS011;6810;63.824;20.288;2023-12-20T05:58:27;0.50;;;0.10;;
13475;SDS011;6810;63.824;20.288;2023-12-20T06:00:56;1.73;;;0.30;;
13475;SDS011;6810;63.824;20.288;2023-12-20T06:03:23;1.60;;;0.20;;
13475;SDS011;6810;63.824;20.288;2023-12-20T06:05:50;0.40;;;0.20;;
13475;SDS011;6810;63.824;20.288;2023-12-20T06:08:21;0.60;;;0.20;;
13475;SDS011;6810;63.824;20.288;2023-12-20T06:10:48;0.87;;;0.10;;
13475;SDS011;6810;63.824;20.288;2023-12-20T06:13:16;0.27;;;0.20;;
13475;SDS011;6810;63.824;20.288;2023-12-20T06:15:43;0.27;;;0.20;;
13475;SDS011;6810;63.824;20.288;2023-12-20T06:18:10;0.40;;;0.30;;
13475;SDS011;6810;63.824;20.288;2023-12-20T06:20:37;1.47;;;0.20;;
13475;SDS011;6810;63.824;20.288;2023-12-20T06:23:04;1.07;;;0.10;;
13475;SDS011;6810;63.824;20.288;2023-12-20T06:25:32;0.63;;;0.13;;
13475;SDS011;6810;63.824;20.288;2023-12-20T06:27:59;2.10;;;0.30;;
13475;SDS011;6810;63.824;20.288;2023-12-20T06:30:26;0.80;;;0.10;;
13475;SDS011;6810;63.824;20.288;2023-12-20T06:32:54;0.83;;;0.30;;
13475;SDS011;6810;63.824;20.288;2023-12-20T06:35:24;1.40;;;0.30;;
13475;SDS011;6810;63.824;20.288;2023-12-20T06:37:51;1.47;;;0.20;;
13475;SDS011;6810;63.824;20.288;2023-12-20T06:40:19;0.30;;;0.20;;
13475;SDS011;6810;63.824;20.288;2023-12-20T06:42:46;1.10;;;0.50;;
13475;SDS011;6810;63.824;20.288;2023-12-20T06:45:30;0.30;;;0.20;;
13475;SDS011;6810;63.824;20.288;2023-12-20T06:47:58;1.90;;;0.20;;
13475;SDS011;6810;63.824;20.288;2023-12-20T06:50:25;1.30;;;0.20;;
13475;SDS011;6810;63.824;20.288;2023-12-20T06:52:52;1.90;;;0.20;;
13475;SDS011;6810;63.824;20.288;2023-12-20T06:55:19;0.37;;;0.10;;
13475;SDS011;6810;63.824;20.288;2023-12-20T06:57:47;0.73;;;0.10;;
13475;SDS011;6810;63.824;20.288;2023-12-20T07:00:14;0.20;;;0.10;;
13475;SDS011;6810;63.824;20.288;2023-12-20T07:02:42;0.97;;;0.30;;
13475;SDS011;6810;63.824;20.288;2023-12-20T07:05:10;1.23;;;0.13;;
13475;SDS011;6810;63.824;20.288;2023-12-20T07:07:37;1.87;;;0.30;;
13475;SDS011;6810;63.824;20.288;2023-12-20T07:10:05;1.03;;;0.30;;
13475;SDS011;6810;63.824;20.288;2023-12-20T07:12:34;0.40;;;0.27;;
13475;SDS011;6810;63.824;20.288;2023-12-20T07:15:01;1.23;;;0.20;;
13475;SDS011;6810;63.824;20.288;2023-12-20T07:17:29;0.93;;;0.20;;
13475;SDS011;6810;63.824;20.288;2023-12-20T07:19:56;1.20;;;0.27;;
13475;SDS011;6810;63.824;20.288;2023-12-20T07:22:23;0.43;;;0.23;;
13475;SDS011;6810;63.824;20.288;2023-12-20T07:24:50;0.30;;;0.10;;
13475;SDS011;6810;63.824;20.288;2023-12-20T07:27:19;1.07;;;0.20;;
13475;SDS011;6810;63.824;20.288;2023-12-20T07:29:46;0.77;;;0.20;;
13475;SDS011;6810;63.824;20.288;2023-12-20T07:32:13;0.37;;;0.20;;
13475;SDS011;6810;63.824;20.288;2023-12-20T07:34:40;0.73;;;0.10;;
13475;SDS011;6810;63.824;20.288;2023-12-20T07:37:07;1.10;;;0.23;;
13475;SDS011;6810;63.824;20.288;2023-12-20T07:39:39;1.80;;;0.40;;
13475;SDS011;6810;63.824;20.288;2023-12-20T07:42:07;1.53;;;0.30;;
13475;SDS011;6810;63.824;20.288;2023-12-20T07:44:35;0.30;;;0.10;;
13475;SDS011;6810;63.824;20.288;2023-12-20T07:47:02;0.97;;;0.20;;
13475;SDS011;6810;63.824;20.288;2023-12-20T07:49:49;0.70;;;0.10;;
13475;SDS011;6810;63.824;20.288;2023-12-20T07:52:36;1.70;;;0.20;;
13475;SDS011;6810;63.824;20.288;2023-12-20T07:55:24;0.53;;;0.10;;
13475;SDS011;6810;63.824;20.288;2023-12-20T07:58:11;1.33;;;0.20;;
13475;SDS011;6810;63.824;20.288;2023-12-20T08:01:16;1.17;;;0.30;;
13475;SDS011;6810;63.824;20.288;2023-12-20T08:04:03;0.40;;;0.10;;
13475;SDS011;6810;63.824;20.288;2023-12-20T08:06:51;1.17;;;0.20;;
13475;SDS011;6810;63.824;20.288;2023-12-20T08:09:38;0.90;;;0.27;;
13475;SDS011;6810;63.824;20.288;2023-12-20T08:12:25;0.73;;;0.27;;
13475;SDS011;6810;63.824;20.288;2023-12-20T08:15:12;0.30;;;0.23;;
13475;SDS011;6810;63.824;20.288;2023-12-20T08:17:59;2.33;;;0.33;;
13475;SDS011;6810;63.824;20.288;2023-12-20T08:20:47;0.50;;;0.40;;
13475;SDS011;6810;63.824;20.288;2023-12-20T08:23:34;0.47;;;0.10;;
13475;SDS011;6810;63.824;20.288;2023-12-20T08:26:21;0.23;;;0.10;;
13475;SDS011;6810;63.824;20.288;2023-12-20T08:29:08;0.77;;;0.33;;
13475;SDS011;6810;63.824;20.288;2023-12-20T08:31:55;0.23;;;0.23;;
13475;SDS011;6810;63.824;20.288;2023-12-20T08:34:43;0.60;;;0.30;;
13475;SDS011;6810;63.824;20.288;2023-12-20T08:37:31;0.53;;;0.23;;
13475;SDS011;6810;63.824;20.288;2023-12-20T08:40:19;0.57;;;0.10;;
13475;SDS011;6810;63.824;20.288;2023-12-20T08:43:06;2.73;;;0.30;;
13475;SDS011;6810;63.824;20.288;2023-12-20T08:45:53;0.17;;;0.10;;
13475;SDS011;6810;63.824;20.288;2023-12-20T08:48:40;0.17;;;0.17;;
13475;SDS011;6810;63.824;20.288;2023-12-20T08:51:27;0.23;;;0.07;;
13475;SDS011;6810;63.824;20.288;2023-12-20T08:54:14;0.30;;;0.27;;
13475;SDS011;6810;63.824;20.288;2023-12-20T08:57:02;1.03;;;0.20;;
13475;SDS011;6810;63.824;20.288;2023-12-20T08:59:51;1.33;;;0.30;;
13475;SDS011;6810;63.824;20.288;2023-12-20T09:02:39;0.67;;;0.10;;
13475;SDS011;6810;63.824;20.288;2023-12-20T09:05:26;0.57;;;0.20;;
13475;SDS011;6810;63.824;20.288;2023-12-20T09:08:13;0.83;;;0.30;;
13475;SDS011;6810;63.824;20.288;2023-12-20T09:11:00;2.47;;;0.23;;
13475;SDS011;6810;63.824;20.288;2023-12-20T09:13:48;1.53;;;0.30;;
13475;SDS011;6810;63.824;20.288;2023-12-20T09:16:35;0.20;;;0.13;;
13475;SDS011;6810;63.824;20.288;2023-12-20T09:19:22;1.73;;;0.30;;
13475;SDS011;6810;63.824;20.288;2023-12-20T09:22:09;0.83;;;0.20;;
13475;SDS011;6810;63.824;20.288;2023-12-20T09:24:56;0.30;;;0.20;;
13475;SDS011;6810;63.824;20.288;2023-12-20T09:30:56;0.50;;;0.20;;
13475;SDS011;6810;63.824;20.288;2023-12-20T09:33:43;0.40;;;0.17;;
13475;SDS011;6810;63.824;20.288;2023-12-20T09:36:30;0.40;;;0.20;;
13475;SDS011;6810;63.824;20.288;2023-12-20T09:39:18;0.20;;;0.10;;
13475;SDS011;6810;63.824;20.288;2023-12-20T09:42:08;0.40;;;0.27;;
13475;SDS011;6810;63.824;20.288;2023-12-20T09:44:58;0.27;;;0.10;;
13475;SDS011;6810;63.824;20.288;2023-12-20T09:47:49;0.20;;;0.20;;
13475;SDS011;6810;63.824;20.288;2023-12-20T09:50:37;0.43;;;0.20;;
13475;SDS011;6810;63.824;20.288;2023-12-20T09:53:24;0.83;;;0.20;;
13475;SDS011;6810;63.824;20.288;2023-12-20T09:56:15;0.87;;;0.20;;
13475;SDS011;6810;63.824;20.288;2023-12-20T09:59:02;0.17;;;0.10;;
13475;SDS011;6810;63.824;20.288;2023-12-20T10:01:49;0.30;;;0.20;;
13475;SDS011;6810;63.824;20.288;2023-12-20T10:04:40;0.77;;;0.20;;
13475;SDS011;6810;63.824;20.288;2023-12-20T10:07:34;0.50;;;0.20;;
13475;SDS011;6810;63.824;20.288;2023-12-20T10:10:22;1.10;;;0.30;;
13475;SDS011;6810;63.824;20.288;2023-12-20T10:13:14;0.97;;;0.30;;
13475;SDS011;6810;63.824;20.288;2023-12-20T10:16:02;0.87;;;0.23;;
13475;SDS011;6810;63.824;20.288;2023-12-20T10:18:49;0.67;;;0.30;;
13475;SDS011;6810;63.824;20.288;2023-12-20T10:21:36;0.23;;;0.17;;
13475;SDS011;6810;63.824;20.288;2023-12-20T10:24:23;1.93;;;0.20;;
13475;SDS011;6810;63.824;20.288;2023-12-20T10:27:11;0.50;;;0.27;;
13475;SDS011;6810;63.824;20.288;2023-12-20T10:29:58;1.17;;;0.20;;
13475;SDS011;6810;63.824;20.288;2023-12-20T10:32:46;1.33;;;0.30;;
13475;SDS011;6810;63.824;20.288;2023-12-20T10:35:33;0.87;;;0.40;;
13475;SDS011;6810;63.824;20.288;2023-12-20T10:38:21;0.80;;;0.20;;
13475;SDS011;6810;63.824;20.288;2023-12-20T10:41:08;1.40;;;0.20;;
13475;SDS011;6810;63.824;20.288;2023-12-20T10:43:58;0.60;;;0.10;;
13475;SDS011;6810;63.824;20.288;2023-12-20T10:46:50;1.60;;;0.10;;
13475;SDS011;6810;63.824;20.288;2023-12-20T10:49:37;0.73;;;0.30;;
13475;SDS011;6810;63.824;20.288;2023-12-20T10:52:27;0.50;;;0.20;;
13475;SDS011;6810;63.824;20.288;2023-12-20T10:55:16;0.67;;;0.60;;
13475;SDS011;6810;63.824;20.288;2023-12-20T10:58:12;1.67;;;0.23;;
13475;SDS011;6810;63.824;20.288;2023-12-20T11:01:01;0.87;;;0.10;;
13475;SDS011;6810;63.824;20.288;2023-12-20T11:03:49;0.10;;;0.10;;
13475;SDS011;6810;63.824;20.288;2023-12-20T11:06:47;0.13;;;0.13;;
13475;SDS011;6810;63.824;20.288;2023-12-20T11:09:39;1.13;;;0.30;;
13475;SDS011;6810;63.824;20.288;2023-12-20T11:12:41;1.53;;;0.37;;
13475;SDS011;6810;63.824;20.288;2023-12-20T11:15:33;1.00;;;0.23;;
13475;SDS011;6810;63.824;20.288;2023-12-20T11:18:20;0.30;;;0.13;;
13475;SDS011;6810;63.824;20.288;2023-12-20T11:21:15;0.10;;;0.10;;
13475;SDS011;6810;63.824;20.288;2023-12-20T11:24:02;0.93;;;0.30;;
13475;SDS011;6810;63.824;20.288;2023-12-20T11:26:51;2.13;;;0.40;;
13475;SDS011;6810;63.824;20.288;2023-12-20T11:29:43;0.30;;;0.30;;
13475;SDS011;6810;63.824;20.288;2023-12-20T11:32:38;2.10;;;0.30;;
13475;SDS011;6810;63.824;20.288;2023-12-20T11:35:27;0.40;;;0.23;;
13475;SDS011;6810;63.824;20.288;2023-12-20T11:38:14;1.53;;;0.30;;
13475;SDS011;6810;63.824;20.288;2023-12-20T11:41:01;0.80;;;0.17;;
13475;SDS011;6810;63.824;20.288;2023-12-20T11:43:48;0.40;;;0.20;;
13475;SDS011;6810;63.824;20.288;2023-12-20T11:46:35;0.73;;;0.33;;
13475;SDS011;6810;63.824;20.288;2023-12-20T11:49:23;2.17;;;0.30;;
13475;SDS011;6810;63.824;20.288;2023-12-20T11:52:11;1.30;;;0.30;;
13475;SDS011;6810;63.824;20.288;2023-12-20T11:54:59;0.80;;;0.30;;
13475;SDS011;6810;63.824;20.288;2023-12-20T11:57:47;1.10;;;0.80;;
13475;SDS011;6810;63.824;20.288;2023-12-20T12:00:34;0.40;;;0.20;;
13475;SDS011;6810;63.824;20.288;2023-12-20T12:03:21;2.57;;;0.30;;
13475;SDS011;6810;63.824;20.288;2023-12-20T12:06:08;1.50;;;0.30;;
13475;SDS011;6810;63.824;20.288;2023-12-20T12:08:55;1.80;;;0.30;;
13475;SDS011;6810;63.824;20.288;2023-12-20T12:11:43;2.23;;;0.43;;
13475;SDS011;6810;63.824;20.288;2023-12-20T12:14:30;1.03;;;0.40;;
13475;SDS011;6810;63.824;20.288;2023-12-20T12:17:17;0.27;;;0.23;;
13475;SDS011;6810;63.824;20.288;2023-12-20T12:20:05;0.97;;;0.30;;
13475;SDS011;6810;63.824;20.288;2023-12-20T12:23:00;0.30;;;0.30;;
13475;SDS011;6810;63.824;20.288;2023-12-20T12:25:48;0.87;;;0.30;;
13475;SDS011;6810;63.824;20.288;2023-12-20T12:28:35;0.57;;;0.13;;
13475;SDS011;6810;63.824;20.288;2023-12-20T12:31:22;1.03;;;0.40;;
13475;SDS011;6810;63.824;20.288;2023-12-20T12:34:10;0.53;;;0.40;;
13475;SDS011;6810;63.824;20.288;2023-12-20T12:36:58;0.60;;;0.20;;
13475;SDS011;6810;63.824;20.288;2023-12-20T12:39:46;0.30;;;0.20;;
13475;SDS011;6810;63.824;20.288;2023-12-20T12:42:33;1.27;;;0.30;;
13475;SDS011;6810;63.824;20.288;2023-12-20T12:45:21;0.80;;;0.20;;
13475;SDS011;6810;63.824;20.288;2023-12-20T12:48:08;0.53;;;0.20;;
13475;SDS011;6810;63.824;20.288;2023-12-20T12:50:55;0.70;;;0.30;;
13475;SDS011;6810;63.824;20.288;2023-12-20T12:53:42;1.03;;;0.17;;
13475;SDS011;6810;63.824;20.288;2023-12-20T12:56:29;2.33;;;0.43;;
13475;SDS011;6810;63.824;20.288;2023-12-20T12:59:16;1.17;;;0.30;;
13475;SDS011;6810;63.824;20.288;2023-12-20T13:02:06;0.80;;;0.30;;
13475;SDS011;6810;63.824;20.288;2023-12-20T13:04:53;0.50;;;0.20;;
13475;SDS011;6810;63.824;20.288;2023-12-20T13:07:41;0.37;;;0.23;;
13475;SDS011;6810;63.824;20.288;2023-12-20T13:10:28;1.40;;;0.40;;
13475;SDS011;6810;63.824;20.288;2023-12-20T13:13:15;1.37;;;0.10;;
13475;SDS011;6810;63.824;20.288;2023-12-20T13:16:02;0.20;;;0.10;;
13475;SDS011;6810;63.824;20.288;2023-12-20T13:18:49;1.93;;;0.30;;
13475;SDS011;6810;63.824;20.288;2023-12-20T13:21:37;0.30;;;0.20;;
13475;SDS011;6810;63.824;20.288;2023-12-20T13:24:24;0.23;;;0.03;;
13475;SDS011;6810;63.824;20.288;2023-12-20T13:27:11;1.20;;;0.23;;
13475;SDS011;6810;63.824;20.288;2023-12-20T13:29:58;1.30;;;0.40;;
13475;SDS011;6810;63.824;20.288;2023-12-20T13:32:45;0.20;;;0.20;;
13475;SDS011;6810;63.824;20.288;2023-12-20T13:35:32;0.50;;;0.20;;
13475;SDS011;6810;63.824;20.288;2023-12-20T13:38:20;0.20;;;0.20;;
13475;SDS011;6810;63.824;20.288;2023-12-20T13:41:08;0.10;;;0.10;;
13475;SDS011;6810;63.824;20.288;2023-12-20T13:43:55;1.00;;;0.30;;
13475;SDS011;6810;63.824;20.288;2023-12-20T13:46:42;0.50;;;0.40;;
13475;SDS011;6810;63.824;20.288;2023-12-20T13:49:29;2.20;;;0.90;;
13475;SDS011;6810;63.824;20.288;2023-12-20T13:52:16;2.40;;;1.03;;
13475;SDS011;6810;63.824;20.288;2023-12-20T13:55:05;5.03;;;0.83;;
13475;SDS011;6810;63.824;20.288;2023-12-20T13:57:52;2.73;;;0.70;;
13475;SDS011;6810;63.824;20.288;2023-12-20T14:00:40;3.70;;;0.70;;
13475;SDS011;6810;63.824;20.288;2023-12-20T14:03:27;2.60;;;0.90;;
13475;SDS011;6810;63.824;20.288;2023-12-20T14:06:14;3.00;;;0.80;;
13475;SDS011;6810;63.824;20.288;2023-12-20T14:09:01;2.00;;;0.63;;
13475;SDS011;6810;63.824;20.288;2023-12-20T14:11:48;3.73;;;0.80;;
13475;SDS011;6810;63.824;20.288;2023-12-20T14:14:36;2.37;;;0.83;;
13475;SDS011;6810;63.824;20.288;2023-12-20T14:17:22;1.00;;;0.60;;
13475;SDS011;6810;63.824;20.288;2023-12-20T14:20:10;1.40;;;0.57;;
13475;SDS011;6810;63.824;20.288;2023-12-20T14:23:01;1.13;;;0.60;;
13475;SDS011;6810;63.824;20.288;2023-12-20T14:25:48;0.73;;;0.40;;
13475;SDS011;6810;63.824;20.288;2023-12-20T14:28:36;1.33;;;0.50;;
13475;SDS011;6810;63.824;20.288;2023-12-20T14:31:23;2.30;;;0.43;;
13475;SDS011;6810;63.824;20.288;2023-12-20T14:34:10;2.77;;;0.50;;
13475;SDS011;6810;63.824;20.288;2023-12-20T14:36:58;0.87;;;0.30;;
13475;SDS011;6810;63.824;20.288;2023-12-20T14:39:45;1.57;;;0.30;;
13475;SDS011;6810;63.824;20.288;2023-12-20T14:42:32;0.70;;;0.37;;
13475;SDS011;6810;63.824;20.288;2023-12-20T14:45:19;0.87;;;0.27;;
13475;SDS011;6810;63.824;20.288;2023-12-20T14:48:06;1.47;;;0.50;;
13475;SDS011;6810;63.824;20.288;2023-12-20T14:50:53;0.97;;;0.40;;
13475;SDS011;6810;63.824;20.288;2023-12-20T14:53:40;1.10;;;0.60;;
13475;SDS011;6810;63.824;20.288;2023-12-20T14:56:28;0.60;;;0.40;;
13475;SDS011;6810;63.824;20.288;2023-12-20T14:59:15;0.77;;;0.30;;
13475;SDS011;6810;63.824;20.288;2023-12-20T15:02:13;2.37;;;0.50;;
13475;SDS011;6810;63.824;20.288;2023-12-20T15:05:01;1.90;;;0.43;;
13475;SDS011;6810;63.824;20.288;2023-12-20T15:07:49;3.60;;;0.73;;
13475;SDS011;6810;63.824;20.288;2023-12-20T15:10:40;0.80;;;0.57;;
13475;SDS011;6810;63.824;20.288;2023-12-20T15:13:29;0.40;;;0.40;;
13475;SDS011;6810;63.824;20.288;2023-12-20T15:16:17;1.33;;;0.63;;
13475;SDS011;6810;63.824;20.288;2023-12-20T15:19:05;3.03;;;0.77;;
13475;SDS011;6810;63.824;20.288;2023-12-20T15:21:52;0.50;;;0.50;;
13475;SDS011;6810;63.824;20.288;2023-12-20T15:24:40;2.17;;;0.70;;
13475;SDS011;6810;63.824;20.288;2023-12-20T15:27:27;0.80;;;0.70;;
13475;SDS011;6810;63.824;20.288;2023-12-20T15:30:15;2.90;;;0.73;;
13475;SDS011;6810;63.824;20.288;2023-12-20T15:33:02;1.27;;;0.70;;
13475;SDS011;6810;63.824;20.288;2023-12-20T15:35:49;0.67;;;0.40;;
13475;SDS011;6810;63.824;20.288;2023-12-20T15:38:36;1.50;;;0.40;;
13475;SDS011;6810;63.824;20.288;2023-12-20T15:41:23;1.93;;;0.67;;
13475;SDS011;6810;63.824;20.288;2023-12-20T15:44:10;1.53;;;0.50;;
13475;SDS011;6810;63.824;20.288;2023-12-20T15:46:59;1.17;;;0.60;;
13475;SDS011;6810;63.824;20.288;2023-12-20T15:49:50;1.23;;;0.67;;
13475;SDS011;6810;63.824;20.288;2023-12-20T15:52:43;1.57;;;0.67;;
13475;SDS011;6810;63.824;20.288;2023-12-20T15:55:30;1.03;;;0.63;;
13475;SDS011;6810;63.824;20.288;2023-12-20T15:58:17;2.47;;;0.70;;
13475;SDS011;6810;63.824;20.288;2023-12-20T16:01:04;1.60;;;0.30;;
13475;SDS011;6810;63.824;20.288;2023-12-20T16:03:52;0.90;;;0.53;;
13475;SDS011;6810;63.824;20.288;2023-12-20T16:06:39;0.73;;;0.60;;
13475;SDS011;6810;63.824;20.288;2023-12-20T16:09:26;0.70;;;0.40;;
13475;SDS011;6810;63.824;20.288;2023-12-20T16:12:13;1.10;;;0.53;;
13475;SDS011;6810;63.824;20.288;2023-12-20T16:15:01;2.20;;;0.63;;